Time;durP1;ratioP1;P1;durP2;ratioP2;P2;SDS_P1;SDS_P2;PMS_P1;PMS_P2;Temp;Humidity;BMP_temperature;BMP_pressure;BME280_temperature;BME280_humidity;BME280_pressure;Samples;Min_cycle;Max_cycle;Signal;HPM_P1;HPM_P2
2022/01/23 00:04:18;;;;;;;10.30;3.90;;;;;;;1.29;83.62;101466.88;10544301;28;20668;-68
2022/01/23 00:09:24;;;;;;;12.03;3.50;;;;;;;1.31;84.28;101470.38;10548584;28;20226;-64
2022/01/23 00:19:50;;;;;;;6.70;2.83;;;;;;;1.37;83.90;101457.84;10548365;28;20325;-67
2022/01/23 00:30:29;;;;;;;11.97;3.37;;;;;;;1.22;85.59;101463.19;10548249;28;20306;-66
2022/01/23 00:35:34;;;;;;;14.07;4.13;;;;;;;1.26;85.21;101465.03;10547746;28;20227;-65
2022/01/23 00:40:41;;;;;;;11.70;4.20;;;;;;;1.19;85.26;101465.59;10547529;28;20290;-66
2022/01/23 00:45:48;;;;;;;12.23;4.07;;;;;;;1.18;85.35;101468.94;10547536;28;20211;-65
2022/01/23 00:50:51;;;;;;;16.10;4.70;;;;;;;1.13;86.03;101478.09;10547107;28;20328;-65
2022/01/23 00:55:58;;;;;;;8.83;3.50;;;;;;;1.17;86.42;101467.22;10547135;28;20227;-65
2022/01/23 01:01:01;;;;;;;11.87;4.03;;;;;;;1.22;86.47;101468.28;10547035;28;20215;-66
2022/01/23 01:06:05;;;;;;;12.37;3.90;;;;;;;1.16;86.80;101470.56;10546883;28;20672;-67
2022/01/23 01:11:28;;;;;;;11.03;3.97;;;;;;;1.14;87.42;101480.72;10546601;28;20576;-64
2022/01/23 01:16:52;;;;;;;10.10;3.37;;;;;;;1.18;87.43;101479.16;10544787;28;20247;-67
2022/01/23 01:33:16;;;;;;;10.40;3.07;;;;;;;1.09;89.04;101479.63;10521467;28;20652;-66
2022/01/23 01:38:20;;;;;;;10.50;3.33;;;;;;;1.01;89.56;101492.88;10545164;28;20216;-65
2022/01/23 01:43:25;;;;;;;11.73;3.40;;;;;;;1.08;89.37;101497.47;10544894;28;20219;-64
2022/01/23 01:48:28;;;;;;;7.97;3.37;;;;;;;1.11;89.60;101495.91;10168918;28;9999775;-63
2022/01/23 01:53:31;;;;;;;9.87;3.47;;;;;;;1.13;89.46;101499.44;10499455;28;20299;-66
2022/01/23 02:09:21;;;;;;;11.53;3.33;;;;;;;1.15;90.30;101504.59;10498984;28;20295;-65
2022/01/23 02:14:36;;;;;;;13.03;3.67;;;;;;;1.18;90.14;101497.94;10498581;28;20231;-69
2022/01/23 02:50:31;;;;;;;10.77;3.93;;;;;;;0.94;92.70;101494.28;10473865;28;20204;-65
2022/01/23 02:52:38;;;;;;;10.33;3.83;;;;;;;0.91;92.82;101512.03;10539323;28;20215;-63
2022/01/23 02:57:54;;;;;;;12.00;3.47;;;;;;;1.04;92.42;101522.00;10539467;28;20191;-66
2022/01/23 03:03:03;;;;;;;8.07;3.03;;;;;;;0.98;93.60;101519.13;10542422;28;20182;-65
2022/01/23 03:08:21;;;;;;;10.33;3.77;;;;;;;1.03;92.93;101532.16;10542705;28;20191;-63
2022/01/23 03:13:46;;;;;;;11.33;3.40;;;;;;;1.03;92.86;101539.81;10542585;28;20233;-62
2022/01/23 03:24:23;;;;;;;9.30;3.07;;;;;;;1.02;94.53;101567.03;10542480;28;20223;-64
2022/01/23 03:29:39;;;;;;;11.17;3.70;;;;;;;1.07;94.03;101572.41;10542152;28;20214;-62
2022/01/23 03:34:42;;;;;;;8.27;2.93;;;;;;;1.03;94.99;101575.59;10541950;28;20223;-65
2022/01/23 03:39:46;;;;;;;12.13;3.37;;;;;;;1.06;95.89;101591.97;10545879;28;20230;-63
2022/01/23 03:45:11;;;;;;;7.00;2.87;;;;;;;0.97;95.46;101598.28;10550432;28;20302;-67
2022/01/23 03:50:14;;;;;;;10.47;3.13;;;;;;;1.10;95.28;101604.06;10549850;28;20225;-67
2022/01/23 03:55:17;;;;;;;13.87;3.30;;;;;;;1.05;95.79;101608.06;10549348;28;20223;-66
2022/01/23 04:00:23;;;;;;;10.70;2.90;;;;;;;1.08;95.75;101605.69;10549295;28;20215;-67
2022/01/23 04:05:26;;;;;;;8.50;2.87;;;;;;;1.05;94.78;101612.34;10549118;28;20245;-65
2022/01/23 04:10:29;;;;;;;8.63;2.80;;;;;;;1.06;95.38;101614.06;10549042;28;20295;-62
2022/01/23 04:15:42;;;;;;;9.77;3.10;;;;;;;1.05;94.60;101631.06;10548819;28;20381;-65
2022/01/23 04:20:52;;;;;;;10.13;3.20;;;;;;;0.98;96.01;101625.63;10548279;28;20230;-65
2022/01/23 05:09:01;;;;;;;11.30;3.30;;;;;;;0.94;98.37;101651.81;10540658;28;20235;-65
2022/01/23 05:14:05;;;;;;;8.90;3.10;;;;;;;0.91;98.58;101665.34;10543319;28;20329;-64
2022/01/23 05:19:09;;;;;;;12.00;3.47;;;;;;;0.94;98.57;101668.03;10543115;28;20235;-63
2022/01/23 05:24:13;;;;;;;8.40;3.20;;;;;;;0.87;99.22;101672.75;10542828;28;20219;-65
2022/01/23 05:29:17;;;;;;;10.07;3.50;;;;;;;0.95;99.21;101685.09;10542773;28;20216;-65
2022/01/23 05:34:22;;;;;;;8.33;3.07;;;;;;;0.96;98.61;101686.00;10542234;28;20222;-65
2022/01/23 05:39:27;;;;;;;10.10;3.50;;;;;;;0.99;99.21;101681.03;10158768;28;10000044;-64
2022/01/23 05:44:30;;;;;;;11.93;3.87;;;;;;;0.98;99.42;101690.38;10500403;28;20222;-66
2022/01/23 05:49:36;;;;;;;10.77;3.73;;;;;;;1.00;99.37;101699.00;10499734;28;20219;-64
2022/01/23 05:54:39;;;;;;;10.07;3.40;;;;;;;0.97;99.64;101695.41;10499871;28;20266;-64
2022/01/23 05:59:42;;;;;;;9.57;2.97;;;;;;;0.95;99.11;101712.34;10499313;28;20224;-64
2022/01/23 06:04:47;;;;;;;10.63;3.27;;;;;;;0.90;99.92;101716.34;10498714;28;20250;-67
2022/01/23 06:09:51;;;;;;;8.80;2.80;;;;;;;0.94;99.33;101733.59;10499150;28;20560;-64
2022/01/23 06:14:54;;;;;;;9.10;3.00;;;;;;;0.75;100.00;101733.47;10498769;28;20233;-65
2022/01/23 06:19:58;;;;;;;9.60;3.10;;;;;;;0.80;100.00;101742.22;10498822;28;20243;-64
2022/01/23 06:25:04;;;;;;;7.27;3.30;;;;;;;0.85;100.00;101735.69;10498582;28;20625;-64
2022/01/23 06:30:09;;;;;;;10.37;3.40;;;;;;;0.71;100.00;101751.97;10500349;28;20232;-64
2022/01/23 06:35:13;;;;;;;9.90;3.00;;;;;;;0.70;100.00;101760.44;10501375;28;20228;-68
2022/01/23 06:40:17;;;;;;;11.70;3.37;;;;;;;0.72;100.00;101762.31;10501444;28;20224;-63
2022/01/23 06:45:20;;;;;;;7.77;3.23;;;;;;;0.78;100.00;101780.47;10501076;28;20559;-68
2022/01/23 06:50:25;;;;;;;16.10;4.23;;;;;;;0.77;100.00;101788.97;10500934;28;20207;-63
2022/01/23 06:55:29;;;;;;;13.17;3.50;;;;;;;0.82;100.00;101796.84;10500972;28;20310;-63
2022/01/23 07:00:33;;;;;;;13.00;4.03;;;;;;;0.75;100.00;101799.88;10500715;28;20220;-64
2022/01/23 07:05:37;;;;;;;11.40;3.57;;;;;;;0.77;100.00;101822.19;10500678;28;20216;-68
2022/01/23 07:10:41;;;;;;;8.70;3.03;;;;;;;0.84;100.00;101833.59;10500659;28;20212;-65
2022/01/23 07:15:44;;;;;;;8.57;2.80;;;;;;;0.91;100.00;101833.09;10506495;28;20226;-63
2022/01/23 07:20:49;;;;;;;7.93;2.90;;;;;;;0.89;100.00;101833.03;10509100;28;20615;-63
2022/01/23 07:25:53;;;;;;;8.40;3.03;;;;;;;0.93;98.44;101842.59;10505450;28;20222;-63
2022/01/23 07:31:00;;;;;;;8.47;2.70;;;;;;;1.00;97.02;101848.94;10175736;27;10000298;-64
2022/01/23 07:36:05;;;;;;;6.03;2.23;;;;;;;0.97;95.76;101862.41;10547180;28;20310;-64
2022/01/23 07:41:09;;;;;;;7.17;2.73;;;;;;;0.98;92.34;101861.59;10546768;28;20744;-67
2022/01/23 07:46:12;;;;;;;6.37;2.40;;;;;;;0.90;90.39;101873.09;10546817;28;20699;-64
2022/01/23 07:51:17;;;;;;;5.90;2.00;;;;;;;0.96;90.81;101888.78;10546568;28;20215;-65
2022/01/23 07:56:20;;;;;;;5.60;1.80;;;;;;;1.00;87.87;101900.03;10546103;28;20231;-65
2022/01/23 08:01:24;;;;;;;7.83;2.30;;;;;;;1.14;87.95;101911.84;10546122;28;20550;-64
2022/01/23 08:06:32;;;;;;;5.60;2.20;;;;;;;0.93;85.61;101910.72;10545774;28;20705;-65
2022/01/23 08:11:36;;;;;;;6.43;2.27;;;;;;;1.25;85.17;101926.06;10545840;28;20668;-66
2022/01/23 08:16:39;;;;;;;7.73;2.40;;;;;;;1.29;82.73;101932.22;10545459;28;20315;-72
2022/01/23 08:21:43;;;;;;;7.43;2.03;;;;;;;1.16;82.53;101926.47;10545158;28;20724;-65
2022/01/23 08:26:47;;;;;;;6.17;2.00;;;;;;;1.13;81.03;101923.75;10545055;28;20266;-64
2022/01/23 08:31:51;;;;;;;5.97;2.07;;;;;;;1.15;80.27;101931.50;10514895;28;20215;-66
2022/01/23 08:36:55;;;;;;;4.67;1.63;;;;;;;1.02;78.59;101941.88;10503144;28;20226;-64
2022/01/23 08:42:01;;;;;;;4.90;1.90;;;;;;;0.90;78.12;101962.53;10502784;28;20527;-65
2022/01/23 08:47:06;;;;;;;4.60;1.53;;;;;;;1.05;78.44;101965.06;10502786;28;20224;-64
2022/01/23 08:52:11;;;;;;;4.13;1.50;;;;;;;1.25;77.04;101974.66;10502733;28;20235;-68
2022/01/23 08:57:16;;;;;;;5.03;2.03;;;;;;;1.30;75.67;101969.78;10502106;28;20515;-64
2022/01/23 09:02:20;;;;;;;5.80;2.20;;;;;;;1.52;76.46;101986.31;10501560;28;20227;-63
2022/01/23 09:07:24;;;;;;;4.80;2.07;;;;;;;1.72;74.69;101992.47;10501765;28;20216;-64
2022/01/23 09:12:42;;;;;;;6.83;2.50;;;;;;;2.14;73.91;101998.06;10501638;28;20216;-64
2022/01/23 09:17:48;;;;;;;5.93;2.17;;;;;;;2.38;73.10;101996.72;10500950;28;20696;-68
2022/01/23 09:22:53;;;;;;;4.93;1.97;;;;;;;2.50;70.46;101993.91;10501114;28;20231;-65
2022/01/23 09:28:02;;;;;;;6.07;1.97;;;;;;;2.61;70.43;102004.63;10500475;28;20308;-66
2022/01/23 09:33:05;;;;;;;6.90;2.13;;;;;;;2.38;70.04;102008.66;10540722;28;20216;-63
2022/01/23 09:38:10;;;;;;;7.80;2.57;;;;;;;2.60;70.43;102014.03;10541361;28;20302;-64
2022/01/23 09:43:20;;;;;;;7.50;2.50;;;;;;;2.90;69.46;102010.34;10541622;28;20218;-64
2022/01/23 09:48:24;;;;;;;11.23;2.83;;;;;;;2.74;68.90;102007.88;10541932;28;20253;-66
2022/01/23 09:53:30;;;;;;;7.57;2.43;;;;;;;2.85;67.62;102008.34;10541553;28;20215;-66
2022/01/23 09:58:34;;;;;;;5.10;2.13;;;;;;;2.75;67.84;102014.75;10541286;28;20276;-65
2022/01/23 10:03:37;;;;;;;5.50;2.30;;;;;;;2.88;66.83;102005.97;10541592;28;20371;-67
2022/01/23 10:08:43;;;;;;;6.53;2.30;;;;;;;2.81;66.02;101993.66;10540828;28;20223;-66
2022/01/23 10:13:48;;;;;;;5.67;2.13;;;;;;;3.26;64.69;101995.78;10540972;28;20307;-64
2022/01/23 10:18:52;;;;;;;8.03;2.77;;;;;;;3.22;64.97;101996.44;10540392;28;20231;-65
2022/01/23 10:23:57;;;;;;;5.70;2.37;;;;;;;3.28;64.58;102001.84;10540578;28;20235;-64
2022/01/23 10:29:12;;;;;;;10.63;3.80;;;;;;;3.32;63.92;102001.19;10534040;28;20220;-64
2022/01/23 10:34:16;;;;;;;8.97;3.93;;;;;;;3.86;64.63;102001.06;10498115;28;20215;-63
2022/01/23 10:39:20;;;;;;;8.30;3.70;;;;;;;4.71;61.70;101997.78;10498027;28;20220;-68
2022/01/23 10:49:47;;;;;;;;;;;;;;;5.56;57.85;101992.47;10498056;28;19928;-64
2022/01/23 10:54:52;;;;;;;;;;;;;;;5.88;56.86;101999.66;10498190;28;19985;-65
2022/01/23 10:59:55;;;;;;;;;;;;;;;6.07;55.66;101993.47;10498022;28;19991;-65
2022/01/23 11:04:59;;;;;;;;;;;;;;;6.03;54.16;101991.59;10498104;28;19920;-63
2022/01/23 11:10:07;;;;;;;9.68;4.30;;;;;;;6.61;52.81;102000.41;10494854;28;20390;-63
2022/01/23 11:20:36;;;;;;;13.90;3.50;;;;;;;7.02;52.31;101993.97;10493084;28;20231;-69
2022/01/23 11:26:05;;;;;;;8.47;3.20;;;;;;;7.39;50.18;101995.94;10483271;28;20303;-65
2022/01/23 11:31:10;;;;;;;11.30;3.90;;;;;;;8.02;50.19;101988.22;10476355;28;20220;-64
2022/01/23 11:36:17;;;;;;;11.10;4.43;;;;;;;8.16;50.87;102001.56;10458452;28;20685;-64
2022/01/23 11:57:42;;;;;;;7.37;3.53;;;;;;;8.89;47.05;102010.28;10499281;28;20228;-66
2022/01/23 12:03:15;;;;;;;7.70;3.50;;;;;;;8.96;45.95;102009.59;10506521;28;20209;-64
2022/01/23 12:08:40;;;;;;;11.27;4.03;;;;;;;9.14;47.01;102012.63;10506650;28;20235;-65
2022/01/23 12:13:57;;;;;;;10.77;4.07;;;;;;;8.81;46.91;102017.03;10507014;28;20184;-62
2022/01/23 12:19:19;;;;;;;7.13;3.83;;;;;;;8.61;46.12;102022.56;10506463;28;20227;-68
2022/01/23 12:24:24;;;;;;;7.73;3.60;;;;;;;8.98;45.45;102020.88;10506190;28;20218;-69
2022/01/23 12:29:29;;;;;;;8.93;4.83;;;;;;;9.03;46.51;102027.03;10506570;28;20204;-70
2022/01/23 12:34:47;;;;;;;10.50;4.70;;;;;;;8.73;46.95;102035.78;10505879;28;20204;-64
2022/01/23 12:40:25;;;;;;;7.90;3.73;;;;;;;8.58;46.20;102049.22;10505865;28;20224;-66
2022/01/23 12:45:52;;;;;;;12.43;4.80;;;;;;;7.67;48.18;102065.66;10505401;28;20220;-67
2022/01/23 12:50:59;;;;;;;9.10;4.00;;;;;;;7.33;48.89;102070.66;10503982;28;20211;-72
2022/01/23 12:56:04;;;;;;;8.23;4.20;;;;;;;6.88;48.54;102083.88;10184977;27;9999898;-69
2022/01/23 13:01:19;;;;;;;8.53;3.80;;;;;;;6.31;49.96;102083.63;10543393;28;20230;-68
2022/01/23 13:06:30;;;;;;;7.93;3.43;;;;;;;5.53;51.26;102092.78;10543262;28;20225;-68
2022/01/23 13:11:53;;;;;;;7.93;3.23;;;;;;;5.02;52.73;102105.31;10541904;28;20269;-67
2022/01/23 13:33:23;;;;;;;7.60;3.23;;;;;;;3.80;54.91;102123.13;10476505;28;20228;-69
2022/01/23 13:38:26;;;;;;;6.97;3.13;;;;;;;3.59;54.84;102129.88;10500194;28;20645;-69
2022/01/23 13:59:56;;;;;;;9.37;4.17;;;;;;;2.82;57.31;102144.09;10541195;28;20251;-69
2022/01/23 14:05:07;;;;;;;;;;;;;;;2.63;59.24;102146.53;10541802;28;20483;-69
2022/01/23 14:10:13;;;;;;;;;;;;;;;2.46;58.04;102143.13;10541459;28;19930;-72
2022/01/23 14:15:17;;;;;;;;;;;;;;;2.48;60.58;102148.34;10541463;28;20007;-70
2022/01/23 14:20:23;;;;;;;;;;;;;;;2.21;60.07;102155.47;10540840;28;19939;-70
2022/01/23 14:25:26;;;;;;;;;;;;;;;2.08;60.51;102163.31;10540400;28;20436;-71
2022/01/23 14:30:30;;;;;;;;;;;;;;;1.89;61.24;102169.16;10540784;28;19924;-69
2022/01/23 14:35:35;;;;;;;20.13;7.10;;;;;;;1.89;63.98;102178.50;10537155;28;20494;-69
2022/01/23 14:40:39;;;;;;;15.13;5.73;;;;;;;1.74;63.71;102178.56;10539549;28;20707;-69
2022/01/23 14:45:44;;;;;;;15.53;5.67;;;;;;;1.59;64.37;102182.84;10539913;28;20211;-70
2022/01/23 14:50:52;;;;;;;16.03;6.40;;;;;;;1.47;65.08;102187.28;10539847;28;20306;-69
2022/01/23 14:56:00;;;;;;;18.13;6.97;;;;;;;1.35;65.49;102188.31;10506015;28;20215;-72
2022/01/23 15:01:05;;;;;;;15.47;5.33;;;;;;;1.25;66.28;102181.78;10497713;28;20220;-70
2022/01/23 15:06:12;;;;;;;19.23;6.20;;;;;;;1.19;65.38;102176.31;10497738;28;20684;-70
2022/01/23 15:11:15;;;;;;;17.47;5.30;;;;;;;1.13;66.24;102175.97;10498252;28;20236;-70
2022/01/23 15:16:18;;;;;;;14.33;5.20;;;;;;;1.03;67.13;102178.81;10496892;28;20223;-70
2022/01/23 15:21:23;;;;;;;13.27;5.70;;;;;;;0.92;67.97;102184.97;10496917;28;20320;-71
2022/01/23 15:26:29;;;;;;;14.17;5.90;;;;;;;0.73;67.38;102190.69;10497108;28;20244;-69
2022/01/23 15:31:33;;;;;;;13.73;5.83;;;;;;;0.67;68.70;102198.00;10496891;28;20303;-71
2022/01/23 15:36:37;;;;;;;14.83;6.13;;;;;;;0.59;68.79;102200.88;10502651;28;20228;-71
2022/01/23 15:41:41;;;;;;;13.83;5.33;;;;;;;0.55;69.68;102204.06;10504854;28;20684;-70
2022/01/23 15:46:46;;;;;;;16.40;6.07;;;;;;;0.46;70.12;102206.94;10504584;28;20266;-71
2022/01/23 15:51:52;;;;;;;18.07;6.13;;;;;;;0.39;70.96;102230.34;10504640;28;20303;-70
2022/01/23 15:56:55;;;;;;;17.03;6.33;;;;;;;0.38;70.43;102227.72;10520127;28;20684;-67
2022/01/23 16:01:59;;;;;;;15.53;6.40;;;;;;;0.32;70.40;102224.78;10497854;28;20662;-65
2022/01/23 16:07:05;;;;;;;19.73;6.30;;;;;;;0.29;70.33;102243.34;10482916;28;20302;-72
2022/01/23 16:12:09;;;;;;;17.10;6.43;;;;;;;0.16;71.78;102250.13;10462248;28;20209;-70
2022/01/23 16:17:32;;;;;;;14.10;5.57;;;;;;;0.07;72.82;102254.72;10462024;28;20260;-69
2022/01/23 16:22:42;;;;;;;19.80;6.27;;;;;;;-0.02;73.07;102271.19;10462024;28;20251;-70
2022/01/23 16:27:45;;;;;;;14.50;5.93;;;;;;;-0.05;73.64;102276.09;10461641;28;20224;-70
2022/01/23 16:32:53;;;;;;;14.60;6.50;;;;;;;-0.09;74.77;102265.63;10461770;28;20615;-71
2022/01/23 16:37:58;;;;;;;11.63;5.63;;;;;;;-0.12;74.04;102273.94;10461007;28;20231;-70
2022/01/23 16:43:01;;;;;;;15.03;6.23;;;;;;;-0.21;75.25;102282.72;10461161;28;20221;-70
2022/01/23 16:48:06;;;;;;;26.43;7.37;;;;;;;-0.21;75.66;102291.22;10460518;28;20216;-69
2022/01/23 16:53:14;;;;;;;19.33;6.73;;;;;;;-0.28;75.12;102306.06;10480765;28;20219;-71
2022/01/23 16:58:19;;;;;;;20.37;6.60;;;;;;;-0.25;76.40;102290.94;10543942;28;20251;-70
2022/01/23 17:03:23;;;;;;;19.87;6.80;;;;;;;-0.24;75.31;102300.34;10543502;28;20219;-72
2022/01/23 17:08:28;;;;;;;15.20;6.90;;;;;;;-0.46;76.82;102313.41;10543327;28;20622;-70
2022/01/23 17:13:33;;;;;;;18.50;7.53;;;;;;;-0.50;77.19;102313.13;10543496;28;20247;-71
2022/01/23 17:19:02;;;;;;;18.70;8.50;;;;;;;-0.48;78.81;102322.59;10542640;28;20258;-72
2022/01/23 17:24:07;;;;;;;18.27;8.33;;;;;;;-0.47;78.17;102326.94;10542736;28;20298;-69
2022/01/23 17:29:10;;;;;;;17.77;8.00;;;;;;;-0.73;79.10;102334.53;10508488;28;20224;-71
2022/01/23 17:34:14;;;;;;;24.60;10.83;;;;;;;-0.78;78.87;102346.09;10500246;28;20212;-68
2022/01/23 17:39:24;;;;;;;23.37;10.57;;;;;;;-0.78;79.92;102346.09;10500056;28;20224;-68
2022/01/23 17:44:29;;;;;;;30.20;12.47;;;;;;;-0.69;79.68;102340.72;10500307;28;20653;-70
2022/01/23 17:49:41;;;;;;;27.90;11.20;;;;;;;-0.84;79.41;102332.94;10499781;28;20553;-70
2022/01/23 17:54:49;;;;;;;30.90;11.63;;;;;;;-1.01;79.76;102337.66;10523576;28;20741;-68
2022/01/23 17:59:52;;;;;;;27.37;10.87;;;;;;;-0.96;80.63;102329.56;10540960;28;20225;-69
2022/01/23 18:04:56;;;;;;;31.20;12.73;;;;;;;-0.84;80.94;102326.94;10540950;28;20238;-70
2022/01/23 18:10:01;;;;;;;24.80;10.83;;;;;;;-1.02;81.13;102330.81;10541193;28;20556;-69
2022/01/23 18:15:07;;;;;;;28.37;12.20;;;;;;;-1.14;82.26;102341.06;10541130;28;20211;-71
2022/01/23 18:20:11;;;;;;;29.97;14.50;;;;;;;-1.01;82.59;102338.56;10540286;28;20552;-72
2022/01/23 18:25:21;;;;;;;37.10;16.07;;;;;;;-0.98;83.35;102343.00;10540416;28;20264;-68
2022/01/23 18:30:25;;;;;;;36.27;16.17;;;;;;;-0.97;82.70;102357.50;10540665;28;20306;-70
2022/01/23 18:35:48;;;;;;;34.33;15.60;;;;;;;-1.08;82.25;102379.69;10540010;28;20327;-70
2022/01/23 18:40:53;;;;;;;34.37;16.23;;;;;;;-1.05;81.67;102373.94;10539760;28;20229;-69
2022/01/23 18:45:56;;;;;;;33.70;14.93;;;;;;;-1.27;82.14;102372.44;10539876;28;20514;-70
2022/01/23 18:51:01;;;;;;;34.87;15.67;;;;;;;-1.26;80.91;102375.88;10496129;28;20247;-70
2022/01/23 18:56:11;;;;;;;37.97;16.47;;;;;;;-1.32;80.44;102367.81;10498880;28;20212;-70
2022/01/23 19:01:17;;;;;;;38.33;16.57;;;;;;;-1.38;79.97;102367.41;10500594;28;20220;-70
2022/01/23 19:06:33;;;;;;;45.97;18.43;;;;;;;-1.44;80.78;102372.06;10500678;28;20232;-70
2022/01/23 19:11:39;;;;;;;47.53;18.80;;;;;;;-1.35;82.16;102381.19;10500126;28;20219;-70
2022/01/23 19:16:42;;;;;;;41.63;18.33;;;;;;;-1.40;81.07;102399.50;10495213;28;20218;-62
2022/01/23 19:21:46;;;;;;;46.53;18.20;;;;;;;-1.31;80.61;102408.66;10106889;28;10000711;-62
2022/01/23 19:26:52;;;;;;;38.33;17.90;;;;;;;-1.48;80.99;102409.13;10455404;28;20217;-62
2022/01/23 19:31:57;;;;;;;41.60;17.77;;;;;;;-1.50;81.39;102413.22;10455534;28;20243;-71
2022/01/23 19:37:00;;;;;;;35.33;18.50;;;;;;;-1.40;80.93;102396.97;10455287;28;20342;-70
2022/01/23 19:42:12;;;;;;;47.07;19.77;;;;;;;-1.47;79.98;102410.03;10455081;28;20221;-69
2022/01/23 19:47:20;;;;;;;44.80;20.30;;;;;;;-1.68;81.05;102432.31;10455372;28;20255;-69
2022/01/23 19:52:23;;;;;;;49.13;22.20;;;;;;;-1.56;83.02;102429.75;10455004;28;20223;-70
2022/01/23 19:57:28;;;;;;;44.47;21.40;;;;;;;-1.69;81.63;102440.69;10454878;28;20224;-71
2022/01/23 20:02:31;;;;;;;50.90;23.37;;;;;;;-1.86;81.68;102438.59;10454883;28;20313;-71
2022/01/23 20:07:35;;;;;;;60.97;26.23;;;;;;;-1.92;82.20;102434.72;10454716;28;20193;-70
2022/01/23 20:12:45;;;;;;;64.40;30.10;;;;;;;-1.97;81.62;102441.16;10454911;28;20290;-71
2022/01/23 20:17:50;;;;;;;67.97;27.93;;;;;;;-1.99;81.31;102435.94;10472215;28;20249;-71
2022/01/23 20:22:54;;;;;;;69.23;31.63;;;;;;;-2.05;82.79;102449.88;10543189;28;20203;-70
2022/01/23 20:27:58;;;;;;;78.80;34.07;;;;;;;-2.07;83.03;102452.28;10545551;28;20278;-73
2022/01/23 20:33:02;;;;;;;79.13;34.20;;;;;;;-2.02;82.83;102463.69;10544858;28;20636;-73
2022/01/23 20:38:08;;;;;;;78.13;36.00;;;;;;;-2.10;81.63;102474.06;10544719;28;20215;-71
2022/01/23 20:43:13;;;;;;;82.27;36.60;;;;;;;-2.02;83.22;102488.25;10544944;28;20526;-72
2022/01/23 20:48:21;;;;;;;94.37;38.40;;;;;;;-2.00;82.89;102492.66;10544374;28;20195;-70
2022/01/23 20:58:56;;;;;;;89.47;38.70;;;;;;;-2.15;84.06;102496.63;10508214;28;20229;-69
2022/01/23 21:04:00;;;;;;;102.23;41.40;;;;;;;-2.31;82.84;102503.00;10543617;28;20192;-69
2022/01/23 21:09:05;;;;;;;99.33;41.57;;;;;;;-2.42;83.71;102508.13;10543744;28;20203;-71
2022/01/23 21:14:16;;;;;;;108.10;43.73;;;;;;;-2.47;86.05;102511.13;10542715;28;20196;-69
2022/01/23 21:30:53;;;;;;;108.67;41.73;;;;;;;-2.68;88.07;102533.25;10500545;28;20321;-71
2022/01/23 21:40:55;;;;;;;99.63;41.37;;;;;;;-2.81;88.98;102548.28;10477692;28;20910;-70
2022/01/23 21:46:00;;;;;;;105.47;42.67;;;;;;;-2.89;88.81;102562.06;10500122;28;20213;-72
2022/01/23 21:51:03;;;;;;;94.23;42.77;;;;;;;-2.93;89.82;102543.88;10499909;28;20721;-71
2022/01/23 21:56:07;;;;;;;104.33;43.07;;;;;;;-3.07;90.21;102532.66;10499968;28;20216;-72
2022/01/23 22:01:12;;;;;;;110.70;44.10;;;;;;;-3.07;91.14;102526.72;10499881;28;20357;-71
2022/01/23 22:06:16;;;;;;;108.07;45.37;;;;;;;-3.11;92.53;102540.81;10499215;28;20224;-72
2022/01/23 22:11:20;;;;;;;107.27;45.93;;;;;;;-3.09;93.54;102520.63;10498938;28;20562;-70
2022/01/23 22:16:25;;;;;;;109.47;44.40;;;;;;;-3.18;93.77;102533.47;10499154;28;20238;-72
2022/01/23 22:21:37;;;;;;;101.13;44.90;;;;;;;-3.18;94.24;102530.94;10538044;28;20285;-71
2022/01/23 22:26:45;;;;;;;112.00;47.13;;;;;;;-3.23;95.14;102532.22;10540621;28;20280;-73
2022/01/23 22:31:50;;;;;;;109.33;46.80;;;;;;;-3.19;96.23;102534.22;10540789;28;20227;-73
2022/01/23 22:36:53;;;;;;;108.73;47.60;;;;;;;-3.23;96.59;102529.69;10540085;28;20548;-72
2022/01/23 22:41:57;;;;;;;119.37;50.93;;;;;;;-3.26;97.54;102536.19;10541766;28;20684;-70
2022/01/23 22:47:01;;;;;;;121.87;48.83;;;;;;;-3.26;99.19;102526.88;10542754;28;20241;-67
2022/01/23 22:52:06;;;;;;;111.40;50.40;;;;;;;-3.27;100.00;102520.06;10543086;28;20233;-69
2022/01/23 22:57:09;;;;;;;111.40;48.23;;;;;;;-3.28;100.00;102517.41;10542822;28;20208;-67
2022/01/23 23:02:19;;;;;;;115.17;48.43;;;;;;;-3.33;100.00;102522.09;10542673;28;20661;-69
2022/01/23 23:07:22;;;;;;;112.00;48.30;;;;;;;-3.44;100.00;102525.44;10542585;28;20544;-68
2022/01/23 23:12:30;;;;;;;121.77;50.20;;;;;;;-3.57;100.00;102525.19;10542407;28;20230;-70
2022/01/23 23:17:36;;;;;;;123.00;52.63;;;;;;;-3.65;100.00;102529.69;10542555;28;20231;-70
2022/01/23 23:22:39;;;;;;;132.63;49.43;;;;;;;-3.75;100.00;102529.69;10542163;28;20302;-71
2022/01/23 23:27:45;;;;;;;124.13;50.03;;;;;;;-3.71;100.00;102541.84;10542265;28;20215;-69
2022/01/23 23:32:50;;;;;;;123.17;50.53;;;;;;;-3.79;100.00;102544.53;10542170;28;20219;-70
2022/01/23 23:37:53;;;;;;;120.90;49.73;;;;;;;-3.78;100.00;102542.09;10542028;28;20215;-69
2022/01/23 23:43:03;;;;;;;128.03;51.93;;;;;;;-3.86;100.00;102542.25;10541881;28;20222;-67
2022/01/23 23:48:08;;;;;;;124.87;52.27;;;;;;;-3.95;100.00;102547.44;10541990;28;20740;-68
2022/01/23 23:53:13;;;;;;;118.27;50.90;;;;;;;-3.97;100.00;102541.34;10541990;28;20232;-68
2022/01/23 23:58:16;;;;;;;125.87;50.33;;;;;;;-3.93;100.00;102539.97;10548341;28;20229;-67
